Архив погоды в Орске

Метеограмма Орск
Воскресенье, 22 Июля
Время местн. Темп Ветер Видим Явления Облачность нижн/средн/верх Атм. давл. Влжн Точка росы ВНГО R Сост. почвы Tg s
Напр Скр Прв ур.ст ур.м изм
05:00 +13.8° С-В 7 - 10 км - переменная облачность 733 758 +0.2 69% +8.3° более 2.5 км - - - -
02:00 +15.9° С-В 8 11 10 км - облачно с прояснениями 733 758 +0.3 70% +10.5° 2 км - - - -
Суббота, 21 Июля
Время местн. Темп Ветер Видим Явления Облачность нижн/средн/верх Атм. давл. Влжн Точка росы ВНГО R Сост. почвы Tg s
Напр Скр Прв ур.ст ур.м изм
23:00 +18.5° С-В 9 15 10 км - переменная облачность 733 757 +1.1 68% +12.5° 1 км - - - -
20:00 +23.6° С-В 9 13 10 км - переменная облачность 732 756 +0.4 53% +13.6° 2 км 0 - - -
17:00 +27.8° С-В 9 12 10 км - переменная облачность 731 755 -0.6 38% +12° 2 км - - - -
14:00 +25.8° С-В 8 12 10 км - переменная облачность 732 756 -0.7 45% +13.1° - - - - -
11:00 +20.7° С-В 6 - 10 км - облачно 732 757 -0.2 67% +14.4° 1 км - - - -
08:00 +18.6° С,С-В 5 - 10 км - облачно 733 757 +0.6 79% +14.8° 600 м 0 Сухая (без трещин) - -
05:00 +18.5° С,С-В 4 - 10 км - переменная облачность 732 756 +0.7 83% +15.5° - - - - -
02:00 +20.7° С,С-В 4 - 10 км - переменная облачность 731 756 +0.1 68% +14.5° - - - - -
Пятница, 20 Июля
Время местн. Темп Ветер Видим Явления Облачность нижн/средн/верх Атм. давл. Влжн Точка росы ВНГО R Сост. почвы Tg s
Напр Скр Прв ур.ст ур.м изм
23:00 +22.8° С 3 - 10 км - переменная облачность 731 756 0 59% +14.3° - - - - -
20:00 +27.3° С 3 - 10 км - преимущественно облачно 731 755 -0.2 39% +12.1° - 0 - - -
17:00 +29.8° С 5 - 10 км - преимущественно облачно 732 755 -0.5 31% +10.8° - - - - -
14:00 +29.4° С,С-В 5 - 10 км - преимущественно облачно 732 756 -0.8 34% +12.1° - - - - -
11:00 +26.2° С,С-В 5 - 10 км - облачно с прояснениями 733 757 -0.8 49% +14.6° - - - - -
08:00 +20.8° С,С-В 3 - 10 км - переменная облачность 734 758 +0.6 72% +15.6° более 2.5 км 0 Влажная (без луж) - -
05:00 +18.1° С,С-З 2 - 10 км - переменная облачность 733 758 +0.2 83% +15.1° более 2.5 км - - - -
02:00 +19.3° С 2 - 10 км - переменная облачность 733 757 +0.1 81% +15.9° более 2.5 км - - - -
Четверг, 19 Июля
Время местн. Темп Ветер Видим Явления Облачность нижн/средн/верх Атм. давл. Влжн Точка росы ВНГО R Сост. почвы Tg s
Напр Скр Прв ур.ст ур.м изм
23:00 +22.3° С 3 - 10 км - переменная облачность 733 757 +0.5 63% +14.8° более 2.5 км - - - -
20:00 +28.4° С,С-В 4 - 10 км - переменная облачность 732 756 0 36% +11.9° более 2.5 км 0 - - -
17:00 +30.1° С,С-З 3 - 10 км - переменная облачность 732 756 -0.4 36% +13.2° 2 км - - - -
14:00 +28.4° С 2 - 10 км - переменная облачность 733 757 -0.5 46% +15.7° более 2.5 км - - - -
11:00 +23.8° С-З 1 - 10 км - переменная облачность 733 757 +0.1 64% +16.6° более 2.5 км - - - -
08:00 +18.1° С 1 - 4 км дымка {туман} переменная облачность 733 758 +0.5 95% +17.3° 2 км 0 Сырая (есть малые или большие лужи) - -
05:00 +15.3° З,Ю-З 2 - 3 км дымка переменная облачность 733 758 +0.5 96% +14.6° 1 км - - - -
02:00 +16.3° Ю 1 - 10 км - переменная облачность 732 757 -1 94% +15.4° 1 км - - - -